sensor_id;sensor_type;location;lat;lon;timestamp;P1;durP1;ratioP1;P2;durP2;ratioP2
36291;SDS011;22327;51.208;6.418;2023-03-04T00:01:35;9.95;;;4.32;;
36291;SDS011;22327;51.208;6.418;2023-03-04T00:04:00;8.15;;;3.78;;
36291;SDS011;22327;51.208;6.418;2023-03-04T00:06:26;11.70;;;4.82;;
36291;SDS011;22327;51.208;6.418;2023-03-04T00:08:51;8.07;;;3.13;;
36291;SDS011;22327;51.208;6.418;2023-03-04T00:11:17;9.40;;;3.40;;
36291;SDS011;22327;51.208;6.418;2023-03-04T00:13:43;11.05;;;3.78;;
36291;SDS011;22327;51.208;6.418;2023-03-04T00:16:08;7.63;;;3.10;;
36291;SDS011;22327;51.208;6.418;2023-03-04T00:18:34;8.48;;;3.05;;
36291;SDS011;22327;51.208;6.418;2023-03-04T00:20:59;9.65;;;3.30;;
36291;SDS011;22327;51.208;6.418;2023-03-04T00:23:25;9.88;;;2.70;;
36291;SDS011;22327;51.208;6.418;2023-03-04T00:25:50;9.00;;;3.70;;
36291;SDS011;22327;51.208;6.418;2023-03-04T00:28:16;9.15;;;2.70;;
36291;SDS011;22327;51.208;6.418;2023-03-04T00:30:41;12.75;;;2.90;;
36291;SDS011;22327;51.208;6.418;2023-03-04T00:33:07;11.45;;;2.75;;
36291;SDS011;22327;51.208;6.418;2023-03-04T00:35:32;11.75;;;2.70;;
36291;SDS011;22327;51.208;6.418;2023-03-04T00:37:58;10.65;;;2.75;;
36291;SDS011;22327;51.208;6.418;2023-03-04T00:40:23;11.43;;;2.45;;
36291;SDS011;22327;51.208;6.418;2023-03-04T00:42:49;10.13;;;2.67;;
36291;SDS011;22327;51.208;6.418;2023-03-04T00:45:15;10.70;;;2.60;;
36291;SDS011;22327;51.208;6.418;2023-03-04T00:47:40;7.75;;;2.10;;
36291;SDS011;22327;51.208;6.418;2023-03-04T00:50:06;10.75;;;2.33;;
36291;SDS011;22327;51.208;6.418;2023-03-04T00:52:32;9.18;;;2.38;;
36291;SDS011;22327;51.208;6.418;2023-03-04T00:54:57;7.90;;;2.10;;
36291;SDS011;22327;51.208;6.418;2023-03-04T00:57:23;12.70;;;2.63;;
36291;SDS011;22327;51.208;6.418;2023-03-04T00:59:48;11.57;;;3.00;;
36291;SDS011;22327;51.208;6.418;2023-03-04T01:02:14;8.25;;;3.50;;
36291;SDS011;22327;51.208;6.418;2023-03-04T01:04:39;8.13;;;2.22;;
36291;SDS011;22327;51.208;6.418;2023-03-04T01:07:05;8.82;;;2.50;;
36291;SDS011;22327;51.208;6.418;2023-03-04T01:09:31;11.20;;;2.63;;
36291;SDS011;22327;51.208;6.418;2023-03-04T01:11:57;10.35;;;3.03;;
36291;SDS011;22327;51.208;6.418;2023-03-04T01:14:22;9.57;;;2.67;;
36291;SDS011;22327;51.208;6.418;2023-03-04T01:16:48;9.45;;;2.47;;
36291;SDS011;22327;51.208;6.418;2023-03-04T01:19:14;9.65;;;2.25;;
36291;SDS011;22327;51.208;6.418;2023-03-04T01:21:40;10.05;;;2.67;;
36291;SDS011;22327;51.208;6.418;2023-03-04T01:24:06;14.77;;;2.55;;
36291;SDS011;22327;51.208;6.418;2023-03-04T01:26:31;9.07;;;2.20;;
36291;SDS011;22327;51.208;6.418;2023-03-04T01:28:57;7.32;;;2.40;;
36291;SDS011;22327;51.208;6.418;2023-03-04T01:31:22;10.98;;;3.38;;
36291;SDS011;22327;51.208;6.418;2023-03-04T01:33:48;11.32;;;2.90;;
36291;SDS011;22327;51.208;6.418;2023-03-04T01:36:15;9.25;;;2.65;;
36291;SDS011;22327;51.208;6.418;2023-03-04T01:38:40;12.18;;;3.05;;
36291;SDS011;22327;51.208;6.418;2023-03-04T01:41:06;12.55;;;3.42;;
36291;SDS011;22327;51.208;6.418;2023-03-04T01:43:31;10.65;;;2.40;;
36291;SDS011;22327;51.208;6.418;2023-03-04T01:45:59;10.70;;;2.38;;
36291;SDS011;22327;51.208;6.418;2023-03-04T01:48:34;10.88;;;2.55;;
36291;SDS011;22327;51.208;6.418;2023-03-04T01:51:03;9.70;;;2.17;;
36291;SDS011;22327;51.208;6.418;2023-03-04T01:53:30;10.15;;;2.78;;
36291;SDS011;22327;51.208;6.418;2023-03-04T01:55:59;9.32;;;2.33;;
36291;SDS011;22327;51.208;6.418;2023-03-04T01:58:29;10.30;;;2.65;;
36291;SDS011;22327;51.208;6.418;2023-03-04T02:00:56;9.95;;;2.58;;
36291;SDS011;22327;51.208;6.418;2023-03-04T02:03:22;8.68;;;2.55;;
36291;SDS011;22327;51.208;6.418;2023-03-04T02:05:49;9.93;;;2.95;;
36291;SDS011;22327;51.208;6.418;2023-03-04T02:08:17;13.77;;;2.75;;
36291;SDS011;22327;51.208;6.418;2023-03-04T02:10:45;7.97;;;2.40;;
36291;SDS011;22327;51.208;6.418;2023-03-04T02:13:12;13.07;;;3.15;;
36291;SDS011;22327;51.208;6.418;2023-03-04T02:15:38;14.23;;;2.65;;
36291;SDS011;22327;51.208;6.418;2023-03-04T02:18:15;9.57;;;2.53;;
36291;SDS011;22327;51.208;6.418;2023-03-04T02:21:03;11.10;;;2.20;;
36291;SDS011;22327;51.208;6.418;2023-03-04T02:23:45;17.00;;;2.60;;
36291;SDS011;22327;51.208;6.418;2023-03-04T02:26:32;10.98;;;2.65;;
36291;SDS011;22327;51.208;6.418;2023-03-04T02:29:03;15.35;;;4.50;;
36291;SDS011;22327;51.208;6.418;2023-03-04T02:34:06;11.80;;;3.58;;
36291;SDS011;22327;51.208;6.418;2023-03-04T02:36:35;13.10;;;2.80;;
36291;SDS011;22327;51.208;6.418;2023-03-04T02:39:03;16.00;;;3.00;;
36291;SDS011;22327;51.208;6.418;2023-03-04T02:41:34;12.50;;;2.40;;
36291;SDS011;22327;51.208;6.418;2023-03-04T02:44:00;9.80;;;1.98;;
36291;SDS011;22327;51.208;6.418;2023-03-04T02:46:25;11.77;;;2.30;;
36291;SDS011;22327;51.208;6.418;2023-03-04T02:48:51;10.82;;;2.47;;
36291;SDS011;22327;51.208;6.418;2023-03-04T02:51:17;20.33;;;3.15;;
36291;SDS011;22327;51.208;6.418;2023-03-04T02:53:43;9.70;;;2.33;;
36291;SDS011;22327;51.208;6.418;2023-03-04T02:56:08;12.85;;;2.50;;
36291;SDS011;22327;51.208;6.418;2023-03-04T02:58:34;14.48;;;3.13;;
36291;SDS011;22327;51.208;6.418;2023-03-04T03:00:59;8.98;;;2.30;;
36291;SDS011;22327;51.208;6.418;2023-03-04T03:03:25;14.88;;;2.90;;
36291;SDS011;22327;51.208;6.418;2023-03-04T03:05:52;12.85;;;2.63;;
36291;SDS011;22327;51.208;6.418;2023-03-04T03:08:17;13.43;;;3.10;;
36291;SDS011;22327;51.208;6.418;2023-03-04T03:10:43;12.60;;;3.20;;
36291;SDS011;22327;51.208;6.418;2023-03-04T03:13:09;14.57;;;2.55;;
36291;SDS011;22327;51.208;6.418;2023-03-04T03:15:34;13.43;;;2.60;;
36291;SDS011;22327;51.208;6.418;2023-03-04T03:18:01;10.52;;;3.17;;
36291;SDS011;22327;51.208;6.418;2023-03-04T03:20:26;11.48;;;3.15;;
36291;SDS011;22327;51.208;6.418;2023-03-04T03:22:52;13.73;;;2.72;;
36291;SDS011;22327;51.208;6.418;2023-03-04T03:25:18;11.05;;;2.70;;
36291;SDS011;22327;51.208;6.418;2023-03-04T03:27:43;10.98;;;3.08;;
36291;SDS011;22327;51.208;6.418;2023-03-04T03:30:10;13.55;;;2.22;;
36291;SDS011;22327;51.208;6.418;2023-03-04T03:32:37;10.27;;;3.35;;
36291;SDS011;22327;51.208;6.418;2023-03-04T03:35:02;19.45;;;2.80;;
36291;SDS011;22327;51.208;6.418;2023-03-04T03:37:29;11.57;;;2.38;;
36291;SDS011;22327;51.208;6.418;2023-03-04T03:39:54;8.60;;;2.22;;
36291;SDS011;22327;51.208;6.418;2023-03-04T03:42:20;10.65;;;3.47;;
36291;SDS011;22327;51.208;6.418;2023-03-04T03:44:45;11.35;;;2.88;;
36291;SDS011;22327;51.208;6.418;2023-03-04T03:47:11;10.88;;;3.13;;
36291;SDS011;22327;51.208;6.418;2023-03-04T03:49:37;12.40;;;2.40;;
36291;SDS011;22327;51.208;6.418;2023-03-04T03:52:02;13.02;;;2.72;;
36291;SDS011;22327;51.208;6.418;2023-03-04T03:54:28;10.45;;;2.80;;
36291;SDS011;22327;51.208;6.418;2023-03-04T03:56:53;7.25;;;2.47;;
36291;SDS011;22327;51.208;6.418;2023-03-04T03:59:19;10.00;;;2.08;;
36291;SDS011;22327;51.208;6.418;2023-03-04T04:01:44;12.45;;;2.53;;
36291;SDS011;22327;51.208;6.418;2023-03-04T04:04:10;11.57;;;3.75;;
36291;SDS011;22327;51.208;6.418;2023-03-04T04:06:36;11.13;;;2.40;;
36291;SDS011;22327;51.208;6.418;2023-03-04T04:09:01;11.25;;;2.83;;
36291;SDS011;22327;51.208;6.418;2023-03-04T04:11:27;10.98;;;3.58;;
36291;SDS011;22327;51.208;6.418;2023-03-04T04:13:52;7.68;;;2.35;;
36291;SDS011;22327;51.208;6.418;2023-03-04T04:16:19;8.45;;;2.55;;
36291;SDS011;22327;51.208;6.418;2023-03-04T04:18:45;12.02;;;2.90;;
36291;SDS011;22327;51.208;6.418;2023-03-04T04:21:10;9.55;;;2.97;;
36291;SDS011;22327;51.208;6.418;2023-03-04T04:23:36;11.45;;;2.72;;
36291;SDS011;22327;51.208;6.418;2023-03-04T04:26:01;9.32;;;2.67;;
36291;SDS011;22327;51.208;6.418;2023-03-04T04:28:27;10.73;;;2.50;;
36291;SDS011;22327;51.208;6.418;2023-03-04T04:30:52;10.88;;;2.67;;
36291;SDS011;22327;51.208;6.418;2023-03-04T04:33:18;11.73;;;3.03;;
36291;SDS011;22327;51.208;6.418;2023-03-04T04:35:44;13.55;;;2.60;;
36291;SDS011;22327;51.208;6.418;2023-03-04T04:38:09;13.10;;;2.88;;
36291;SDS011;22327;51.208;6.418;2023-03-04T04:40:35;10.05;;;2.58;;
36291;SDS011;22327;51.208;6.418;2023-03-04T04:43:01;9.80;;;2.40;;
36291;SDS011;22327;51.208;6.418;2023-03-04T04:45:26;11.30;;;2.63;;
36291;SDS011;22327;51.208;6.418;2023-03-04T04:47:52;12.25;;;2.42;;
36291;SDS011;22327;51.208;6.418;2023-03-04T04:50:21;9.35;;;2.60;;
36291;SDS011;22327;51.208;6.418;2023-03-04T04:52:50;10.82;;;2.80;;
36291;SDS011;22327;51.208;6.418;2023-03-04T04:55:15;8.07;;;1.98;;
36291;SDS011;22327;51.208;6.418;2023-03-04T04:57:41;6.38;;;1.95;;
36291;SDS011;22327;51.208;6.418;2023-03-04T05:00:07;10.55;;;3.28;;
36291;SDS011;22327;51.208;6.418;2023-03-04T05:02:34;7.07;;;1.90;;
36291;SDS011;22327;51.208;6.418;2023-03-04T05:05:00;7.55;;;1.90;;
36291;SDS011;22327;51.208;6.418;2023-03-04T05:07:30;9.40;;;1.98;;
36291;SDS011;22327;51.208;6.418;2023-03-04T05:12:47;7.22;;;2.15;;
36291;SDS011;22327;51.208;6.418;2023-03-04T05:15:13;7.05;;;1.98;;
36291;SDS011;22327;51.208;6.418;2023-03-04T05:17:39;7.93;;;2.20;;
36291;SDS011;22327;51.208;6.418;2023-03-04T05:20:04;12.85;;;3.35;;
36291;SDS011;22327;51.208;6.418;2023-03-04T05:22:31;10.15;;;2.15;;
36291;SDS011;22327;51.208;6.418;2023-03-04T05:24:56;16.23;;;4.30;;
36291;SDS011;22327;51.208;6.418;2023-03-04T05:27:22;12.07;;;2.40;;
36291;SDS011;22327;51.208;6.418;2023-03-04T05:29:48;10.35;;;2.25;;
36291;SDS011;22327;51.208;6.418;2023-03-04T05:32:13;7.90;;;2.13;;
36291;SDS011;22327;51.208;6.418;2023-03-04T05:34:39;12.50;;;2.58;;
36291;SDS011;22327;51.208;6.418;2023-03-04T05:37:04;6.38;;;1.77;;
36291;SDS011;22327;51.208;6.418;2023-03-04T05:39:30;4.22;;;1.40;;
36291;SDS011;22327;51.208;6.418;2023-03-04T05:41:55;7.82;;;1.90;;
36291;SDS011;22327;51.208;6.418;2023-03-04T05:44:21;7.18;;;2.20;;
36291;SDS011;22327;51.208;6.418;2023-03-04T05:46:46;8.70;;;2.28;;
36291;SDS011;22327;51.208;6.418;2023-03-04T05:49:12;9.15;;;2.20;;
36291;SDS011;22327;51.208;6.418;2023-03-04T05:51:37;8.30;;;1.80;;
36291;SDS011;22327;51.208;6.418;2023-03-04T05:54:03;11.05;;;3.40;;
36291;SDS011;22327;51.208;6.418;2023-03-04T05:56:28;6.22;;;1.90;;
36291;SDS011;22327;51.208;6.418;2023-03-04T05:58:56;8.75;;;1.63;;
36291;SDS011;22327;51.208;6.418;2023-03-04T06:01:23;10.52;;;2.63;;
36291;SDS011;22327;51.208;6.418;2023-03-04T06:03:48;7.03;;;1.52;;
36291;SDS011;22327;51.208;6.418;2023-03-04T06:06:14;8.75;;;2.20;;
36291;SDS011;22327;51.208;6.418;2023-03-04T06:08:40;5.20;;;1.58;;
36291;SDS011;22327;51.208;6.418;2023-03-04T06:11:05;7.32;;;2.03;;
36291;SDS011;22327;51.208;6.418;2023-03-04T06:13:32;5.45;;;1.33;;
36291;SDS011;22327;51.208;6.418;2023-03-04T06:15:58;6.35;;;2.13;;
36291;SDS011;22327;51.208;6.418;2023-03-04T06:18:24;5.00;;;1.70;;
36291;SDS011;22327;51.208;6.418;2023-03-04T06:21:09;8.40;;;2.00;;
36291;SDS011;22327;51.208;6.418;2023-03-04T06:23:35;8.05;;;1.60;;
36291;SDS011;22327;51.208;6.418;2023-03-04T06:26:00;8.05;;;1.70;;
36291;SDS011;22327;51.208;6.418;2023-03-04T06:28:26;9.10;;;2.30;;
36291;SDS011;22327;51.208;6.418;2023-03-04T06:30:53;7.10;;;1.75;;
36291;SDS011;22327;51.208;6.418;2023-03-04T06:33:19;7.97;;;1.70;;
36291;SDS011;22327;51.208;6.418;2023-03-04T06:35:45;4.00;;;1.83;;
36291;SDS011;22327;51.208;6.418;2023-03-04T06:38:11;5.30;;;1.90;;
36291;SDS011;22327;51.208;6.418;2023-03-04T06:40:36;11.10;;;2.38;;
36291;SDS011;22327;51.208;6.418;2023-03-04T06:43:02;8.27;;;2.08;;
36291;SDS011;22327;51.208;6.418;2023-03-04T06:45:27;10.55;;;1.80;;
36291;SDS011;22327;51.208;6.418;2023-03-04T06:47:53;10.75;;;2.88;;
36291;SDS011;22327;51.208;6.418;2023-03-04T06:50:19;7.20;;;1.55;;
36291;SDS011;22327;51.208;6.418;2023-03-04T06:52:44;9.35;;;2.20;;
36291;SDS011;22327;51.208;6.418;2023-03-04T06:55:10;7.18;;;1.83;;
36291;SDS011;22327;51.208;6.418;2023-03-04T06:57:37;9.63;;;1.63;;
36291;SDS011;22327;51.208;6.418;2023-03-04T07:00:03;5.50;;;1.45;;
36291;SDS011;22327;51.208;6.418;2023-03-04T07:02:29;7.90;;;1.63;;
36291;SDS011;22327;51.208;6.418;2023-03-04T07:04:55;6.82;;;1.40;;
36291;SDS011;22327;51.208;6.418;2023-03-04T07:07:20;8.35;;;2.28;;
36291;SDS011;22327;51.208;6.418;2023-03-04T07:09:46;3.28;;;1.20;;
36291;SDS011;22327;51.208;6.418;2023-03-04T07:12:11;4.68;;;1.33;;
36291;SDS011;22327;51.208;6.418;2023-03-04T07:14:37;5.32;;;1.23;;
36291;SDS011;22327;51.208;6.418;2023-03-04T07:17:02;10.45;;;2.58;;
36291;SDS011;22327;51.208;6.418;2023-03-04T07:19:28;6.00;;;1.50;;
36291;SDS011;22327;51.208;6.418;2023-03-04T07:21:53;6.75;;;2.33;;
36291;SDS011;22327;51.208;6.418;2023-03-04T07:24:19;4.30;;;1.42;;
36291;SDS011;22327;51.208;6.418;2023-03-04T07:26:44;5.07;;;1.40;;
36291;SDS011;22327;51.208;6.418;2023-03-04T07:29:11;4.00;;;1.40;;
36291;SDS011;22327;51.208;6.418;2023-03-04T07:31:37;9.35;;;2.05;;
36291;SDS011;22327;51.208;6.418;2023-03-04T07:34:03;5.80;;;1.33;;
36291;SDS011;22327;51.208;6.418;2023-03-04T07:36:30;8.10;;;1.30;;
36291;SDS011;22327;51.208;6.418;2023-03-04T07:38:58;5.78;;;1.40;;
36291;SDS011;22327;51.208;6.418;2023-03-04T07:41:24;6.78;;;1.30;;
36291;SDS011;22327;51.208;6.418;2023-03-04T07:43:51;3.80;;;1.30;;
36291;SDS011;22327;51.208;6.418;2023-03-04T07:46:17;6.88;;;1.88;;
36291;SDS011;22327;51.208;6.418;2023-03-04T07:48:43;5.32;;;1.45;;
36291;SDS011;22327;51.208;6.418;2023-03-04T07:51:10;7.50;;;2.20;;
36291;SDS011;22327;51.208;6.418;2023-03-04T07:53:37;5.35;;;1.50;;
36291;SDS011;22327;51.208;6.418;2023-03-04T07:56:05;10.45;;;2.40;;
36291;SDS011;22327;51.208;6.418;2023-03-04T07:58:31;7.72;;;1.83;;
36291;SDS011;22327;51.208;6.418;2023-03-04T08:00:57;7.53;;;1.80;;
36291;SDS011;22327;51.208;6.418;2023-03-04T08:03:23;7.35;;;1.67;;
36291;SDS011;22327;51.208;6.418;2023-03-04T08:05:49;6.68;;;1.63;;
36291;SDS011;22327;51.208;6.418;2023-03-04T08:08:15;4.05;;;1.70;;
36291;SDS011;22327;51.208;6.418;2023-03-04T08:10:42;5.95;;;1.55;;
36291;SDS011;22327;51.208;6.418;2023-03-04T08:13:08;4.80;;;1.50;;
36291;SDS011;22327;51.208;6.418;2023-03-04T08:15:38;5.70;;;1.30;;
36291;SDS011;22327;51.208;6.418;2023-03-04T08:18:04;4.68;;;1.50;;
36291;SDS011;22327;51.208;6.418;2023-03-04T08:20:30;6.22;;;1.38;;
36291;SDS011;22327;51.208;6.418;2023-03-04T08:22:55;7.10;;;1.38;;
36291;SDS011;22327;51.208;6.418;2023-03-04T08:25:21;8.57;;;1.55;;
36291;SDS011;22327;51.208;6.418;2023-03-04T08:27:46;5.68;;;1.42;;
36291;SDS011;22327;51.208;6.418;2023-03-04T08:30:12;6.57;;;1.00;;
36291;SDS011;22327;51.208;6.418;2023-03-04T08:32:38;6.88;;;1.27;;
36291;SDS011;22327;51.208;6.418;2023-03-04T08:35:03;4.72;;;1.15;;
36291;SDS011;22327;51.208;6.418;2023-03-04T08:37:29;4.22;;;0.90;;
36291;SDS011;22327;51.208;6.418;2023-03-04T08:39:55;4.13;;;0.95;;
36291;SDS011;22327;51.208;6.418;2023-03-04T08:42:22;5.55;;;1.30;;
36291;SDS011;22327;51.208;6.418;2023-03-04T08:44:48;7.05;;;1.42;;
36291;SDS011;22327;51.208;6.418;2023-03-04T08:47:14;6.68;;;2.00;;
36291;SDS011;22327;51.208;6.418;2023-03-04T08:49:39;3.58;;;1.63;;
36291;SDS011;22327;51.208;6.418;2023-03-04T08:52:05;9.70;;;2.67;;
36291;SDS011;22327;51.208;6.418;2023-03-04T08:54:30;5.57;;;1.60;;
36291;SDS011;22327;51.208;6.418;2023-03-04T08:56:56;5.38;;;1.40;;
36291;SDS011;22327;51.208;6.418;2023-03-04T08:59:21;6.00;;;1.70;;
36291;SDS011;22327;51.208;6.418;2023-03-04T09:01:47;8.77;;;1.83;;
36291;SDS011;22327;51.208;6.418;2023-03-04T09:04:12;7.25;;;1.30;;
36291;SDS011;22327;51.208;6.418;2023-03-04T09:06:38;5.63;;;1.88;;
36291;SDS011;22327;51.208;6.418;2023-03-04T09:09:03;3.33;;;1.20;;
36291;SDS011;22327;51.208;6.418;2023-03-04T09:11:29;6.50;;;1.80;;
36291;SDS011;22327;51.208;6.418;2023-03-04T09:13:55;5.10;;;1.70;;
36291;SDS011;22327;51.208;6.418;2023-03-04T09:16:20;6.75;;;2.05;;
36291;SDS011;22327;51.208;6.418;2023-03-04T09:18:46;4.13;;;2.05;;
36291;SDS011;22327;51.208;6.418;2023-03-04T09:21:12;5.38;;;1.55;;
36291;SDS011;22327;51.208;6.418;2023-03-04T09:23:38;3.20;;;1.13;;
36291;SDS011;22327;51.208;6.418;2023-03-04T09:26:18;2.83;;;0.88;;
36291;SDS011;22327;51.208;6.418;2023-03-04T09:28:53;3.78;;;1.38;;
36291;SDS011;22327;51.208;6.418;2023-03-04T09:31:21;3.08;;;0.90;;
36291;SDS011;22327;51.208;6.418;2023-03-04T09:33:47;5.38;;;0.82;;
36291;SDS011;22327;51.208;6.418;2023-03-04T09:36:13;6.05;;;1.17;;
36291;SDS011;22327;51.208;6.418;2023-03-04T09:38:39;4.82;;;1.02;;
36291;SDS011;22327;51.208;6.418;2023-03-04T09:41:07;4.18;;;1.17;;
36291;SDS011;22327;51.208;6.418;2023-03-04T09:43:34;5.43;;;1.10;;
36291;SDS011;22327;51.208;6.418;2023-03-04T09:46:07;4.03;;;0.95;;
36291;SDS011;22327;51.208;6.418;2023-03-04T09:48:42;2.58;;;0.90;;
36291;SDS011;22327;51.208;6.418;2023-03-04T09:54:26;7.15;;;1.30;;
36291;SDS011;22327;51.208;6.418;2023-03-04T09:57:12;3.83;;;0.88;;
36291;SDS011;22327;51.208;6.418;2023-03-04T10:00:13;4.60;;;0.93;;
36291;SDS011;22327;51.208;6.418;2023-03-04T10:02:51;4.93;;;1.55;;
36291;SDS011;22327;51.208;6.418;2023-03-04T10:05:20;3.13;;;0.93;;
36291;SDS011;22327;51.208;6.418;2023-03-04T10:07:49;2.70;;;0.80;;
36291;SDS011;22327;51.208;6.418;2023-03-04T10:10:24;4.03;;;1.20;;
36291;SDS011;22327;51.208;6.418;2023-03-04T10:12:54;4.45;;;0.85;;
36291;SDS011;22327;51.208;6.418;2023-03-04T10:15:30;2.28;;;1.10;;
36291;SDS011;22327;51.208;6.418;2023-03-04T10:18:08;3.95;;;1.17;;
36291;SDS011;22327;51.208;6.418;2023-03-04T10:20:42;3.15;;;1.10;;
36291;SDS011;22327;51.208;6.418;2023-03-04T10:23:17;2.35;;;0.65;;
36291;SDS011;22327;51.208;6.418;2023-03-04T10:25:46;2.78;;;1.25;;
36291;SDS011;22327;51.208;6.418;2023-03-04T10:28:18;3.58;;;0.90;;
36291;SDS011;22327;51.208;6.418;2023-03-04T10:33:24;4.57;;;0.98;;
36291;SDS011;22327;51.208;6.418;2023-03-04T10:38:24;2.10;;;0.95;;
36291;SDS011;22327;51.208;6.418;2023-03-04T10:40:52;5.40;;;1.00;;
36291;SDS011;22327;51.208;6.418;2023-03-04T10:43:19;4.18;;;1.10;;
36291;SDS011;22327;51.208;6.418;2023-03-04T10:45:45;3.03;;;0.73;;
36291;SDS011;22327;51.208;6.418;2023-03-04T10:48:25;3.70;;;0.90;;
36291;SDS011;22327;51.208;6.418;2023-03-04T10:50:52;1.20;;;0.60;;
36291;SDS011;22327;51.208;6.418;2023-03-04T10:53:27;4.20;;;0.82;;
36291;SDS011;22327;51.208;6.418;2023-03-04T10:56:01;3.30;;;0.90;;
36291;SDS011;22327;51.208;6.418;2023-03-04T10:58:27;4.25;;;0.77;;
36291;SDS011;22327;51.208;6.418;2023-03-04T11:01:04;2.55;;;0.63;;
36291;SDS011;22327;51.208;6.418;2023-03-04T11:03:31;3.25;;;0.95;;
36291;SDS011;22327;51.208;6.418;2023-03-04T11:08:54;3.25;;;0.70;;
36291;SDS011;22327;51.208;6.418;2023-03-04T11:11:22;3.90;;;0.80;;
36291;SDS011;22327;51.208;6.418;2023-03-04T11:13:54;1.05;;;0.70;;
36291;SDS011;22327;51.208;6.418;2023-03-04T11:16:24;1.65;;;0.68;;
36291;SDS011;22327;51.208;6.418;2023-03-04T11:18:52;1.70;;;0.90;;
36291;SDS011;22327;51.208;6.418;2023-03-04T11:21:21;3.25;;;0.82;;
36291;SDS011;22327;51.208;6.418;2023-03-04T11:23:56;1.98;;;0.80;;
36291;SDS011;22327;51.208;6.418;2023-03-04T11:26:54;2.30;;;0.70;;
36291;SDS011;22327;51.208;6.418;2023-03-04T11:32:17;2.13;;;0.73;;
36291;SDS011;22327;51.208;6.418;2023-03-04T11:40:28;3.25;;;0.80;;
36291;SDS011;22327;51.208;6.418;2023-03-04T11:43:16;1.42;;;0.60;;
36291;SDS011;22327;51.208;6.418;2023-03-04T11:57:17;3.45;;;0.70;;
36291;SDS011;22327;51.208;6.418;2023-03-04T11:59:56;1.52;;;0.70;;
36291;SDS011;22327;51.208;6.418;2023-03-04T12:02:40;1.73;;;0.57;;
36291;SDS011;22327;51.208;6.418;2023-03-04T12:05:50;1.10;;;0.55;;
36291;SDS011;22327;51.208;6.418;2023-03-04T12:08:30;2.72;;;1.42;;
36291;SDS011;22327;51.208;6.418;2023-03-04T12:11:29;1.67;;;0.80;;
36291;SDS011;22327;51.208;6.418;2023-03-04T12:19:36;2.60;;;0.80;;
36291;SDS011;22327;51.208;6.418;2023-03-04T12:22:41;4.22;;;0.80;;
36291;SDS011;22327;51.208;6.418;2023-03-04T12:36:20;4.03;;;0.90;;
36291;SDS011;22327;51.208;6.418;2023-03-04T12:39:13;2.83;;;0.90;;
36291;SDS011;22327;51.208;6.418;2023-03-04T12:49:52;4.97;;;1.13;;
36291;SDS011;22327;51.208;6.418;2023-03-04T12:52:43;2.88;;;0.88;;
36291;SDS011;22327;51.208;6.418;2023-03-04T12:55:39;2.42;;;0.57;;
36291;SDS011;22327;51.208;6.418;2023-03-04T12:58:23;2.17;;;0.60;;
36291;SDS011;22327;51.208;6.418;2023-03-04T13:00:53;2.90;;;0.70;;
36291;SDS011;22327;51.208;6.418;2023-03-04T13:03:39;1.58;;;0.70;;
36291;SDS011;22327;51.208;6.418;2023-03-04T13:08:57;1.98;;;0.80;;
36291;SDS011;22327;51.208;6.418;2023-03-04T13:11:39;3.15;;;1.00;;
36291;SDS011;22327;51.208;6.418;2023-03-04T13:14:24;4.38;;;1.35;;
36291;SDS011;22327;51.208;6.418;2023-03-04T13:16:52;0.73;;;0.55;;
36291;SDS011;22327;51.208;6.418;2023-03-04T13:24:55;1.75;;;0.70;;
36291;SDS011;22327;51.208;6.418;2023-03-04T13:35:48;5.65;;;1.77;;
36291;SDS011;22327;51.208;6.418;2023-03-04T13:43:54;3.88;;;0.80;;
36291;SDS011;22327;51.208;6.418;2023-03-04T13:51:23;3.63;;;1.02;;
36291;SDS011;22327;51.208;6.418;2023-03-04T13:56:44;1.10;;;0.60;;
36291;SDS011;22327;51.208;6.418;2023-03-04T14:04:28;1.58;;;0.80;;
36291;SDS011;22327;51.208;6.418;2023-03-04T14:06:59;1.83;;;0.77;;
36291;SDS011;22327;51.208;6.418;2023-03-04T14:09:29;1.30;;;1.02;;
36291;SDS011;22327;51.208;6.418;2023-03-04T14:11:56;2.17;;;0.80;;
36291;SDS011;22327;51.208;6.418;2023-03-04T14:14:27;2.53;;;1.00;;
36291;SDS011;22327;51.208;6.418;2023-03-04T14:16:57;2.17;;;1.23;;
36291;SDS011;22327;51.208;6.418;2023-03-04T14:19:29;2.40;;;1.05;;
36291;SDS011;22327;51.208;6.418;2023-03-04T14:22:02;3.72;;;1.13;;
36291;SDS011;22327;51.208;6.418;2023-03-04T14:24:57;2.83;;;0.90;;
36291;SDS011;22327;51.208;6.418;2023-03-04T14:27:29;3.92;;;1.20;;
36291;SDS011;22327;51.208;6.418;2023-03-04T14:30:00;3.45;;;1.15;;
36291;SDS011;22327;51.208;6.418;2023-03-04T14:32:31;3.22;;;1.00;;
36291;SDS011;22327;51.208;6.418;2023-03-04T14:34:58;1.23;;;0.80;;
36291;SDS011;22327;51.208;6.418;2023-03-04T14:37:31;2.13;;;0.98;;
36291;SDS011;22327;51.208;6.418;2023-03-04T14:40:21;3.50;;;1.10;;
36291;SDS011;22327;51.208;6.418;2023-03-04T14:42:59;3.20;;;0.90;;
36291;SDS011;22327;51.208;6.418;2023-03-04T14:45:29;2.17;;;1.10;;
36291;SDS011;22327;51.208;6.418;2023-03-04T14:47:56;2.60;;;1.70;;
36291;SDS011;22327;51.208;6.418;2023-03-04T14:50:28;2.47;;;1.27;;
36291;SDS011;22327;51.208;6.418;2023-03-04T14:55:32;1.70;;;1.10;;
36291;SDS011;22327;51.208;6.418;2023-03-04T14:58:08;3.80;;;1.50;;
36291;SDS011;22327;51.208;6.418;2023-03-04T15:00:44;3.67;;;1.50;;
36291;SDS011;22327;51.208;6.418;2023-03-04T15:03:23;2.58;;;1.35;;
36291;SDS011;22327;51.208;6.418;2023-03-04T15:05:50;2.95;;;1.77;;
36291;SDS011;22327;51.208;6.418;2023-03-04T15:10:52;2.53;;;1.70;;
36291;SDS011;22327;51.208;6.418;2023-03-04T15:13:35;1.95;;;1.70;;
36291;SDS011;22327;51.208;6.418;2023-03-04T15:16:09;4.65;;;2.25;;
36291;SDS011;22327;51.208;6.418;2023-03-04T15:18:37;4.10;;;1.50;;
36291;SDS011;22327;51.208;6.418;2023-03-04T15:21:05;3.25;;;1.60;;
36291;SDS011;22327;51.208;6.418;2023-03-04T15:23:50;2.17;;;1.52;;
36291;SDS011;22327;51.208;6.418;2023-03-04T15:26:16;2.70;;;1.70;;
36291;SDS011;22327;51.208;6.418;2023-03-04T15:28:42;3.90;;;1.75;;
36291;SDS011;22327;51.208;6.418;2023-03-04T15:31:18;6.35;;;2.80;;
36291;SDS011;22327;51.208;6.418;2023-03-04T15:33:45;3.42;;;1.85;;
36291;SDS011;22327;51.208;6.418;2023-03-04T15:36:12;3.25;;;2.00;;
36291;SDS011;22327;51.208;6.418;2023-03-04T15:38:39;7.70;;;2.33;;
36291;SDS011;22327;51.208;6.418;2023-03-04T15:41:08;2.90;;;1.98;;
36291;SDS011;22327;51.208;6.418;2023-03-04T15:43:35;6.05;;;2.30;;
36291;SDS011;22327;51.208;6.418;2023-03-04T15:46:01;3.60;;;2.13;;
36291;SDS011;22327;51.208;6.418;2023-03-04T15:48:27;4.95;;;2.40;;
36291;SDS011;22327;51.208;6.418;2023-03-04T15:51:01;3.42;;;2.45;;
36291;SDS011;22327;51.208;6.418;2023-03-04T15:53:35;4.07;;;2.60;;
36291;SDS011;22327;51.208;6.418;2023-03-04T15:56:03;4.07;;;2.40;;
36291;SDS011;22327;51.208;6.418;2023-03-04T15:58:32;3.53;;;2.33;;
36291;SDS011;22327;51.208;6.418;2023-03-04T16:00:57;2.95;;;2.10;;
36291;SDS011;22327;51.208;6.418;2023-03-04T16:03:23;2.83;;;2.55;;
36291;SDS011;22327;51.208;6.418;2023-03-04T16:05:49;5.85;;;3.17;;
36291;SDS011;22327;51.208;6.418;2023-03-04T16:08:17;5.60;;;2.58;;
36291;SDS011;22327;51.208;6.418;2023-03-04T16:10:45;4.00;;;2.50;;
36291;SDS011;22327;51.208;6.418;2023-03-04T16:13:16;2.78;;;2.40;;
36291;SDS011;22327;51.208;6.418;2023-03-04T16:15:44;4.00;;;2.75;;
36291;SDS011;22327;51.208;6.418;2023-03-04T16:18:11;2.60;;;2.40;;
36291;SDS011;22327;51.208;6.418;2023-03-04T16:20:37;4.13;;;2.47;;
36291;SDS011;22327;51.208;6.418;2023-03-04T16:23:08;3.30;;;2.63;;
36291;SDS011;22327;51.208;6.418;2023-03-04T16:25:36;3.85;;;2.80;;
36291;SDS011;22327;51.208;6.418;2023-03-04T16:28:02;8.35;;;3.30;;
36291;SDS011;22327;51.208;6.418;2023-03-04T16:30:28;3.63;;;2.88;;
36291;SDS011;22327;51.208;6.418;2023-03-04T16:32:54;3.35;;;2.65;;
36291;SDS011;22327;51.208;6.418;2023-03-04T16:35:20;5.43;;;3.10;;